DW5978 Whyalla SA AU current weather conditions

sailwx.info

Wind from 333 at 4 knots gusting 8

Air temperature 9.4° C
Dewpoint 8.4° C

Last reported at 2014-Jul-24 16:34 UTC.
Time now 2014-Jul-24 19:23 UTC

Location: S 33°01' E 137°32'.
View on Google Maps.

See reports from other nearby stations

  
Tides and Currents Weather Stations Pressure Air Temp Water Temp Dewpoint Dewpoint Depression Visibility Wind Speed Wind Dir Waves Ship Positions
date/time (UTC)wind fromknots sea level pressurealtimeterstation pressurevisibilityair tempwater tempwave heightnotes
2014-Jul-24 16:34 333 4 gusting 8 9.4
2014-Jul-24 15:17 319 2 gusting 4 9.4
2014-Jul-24 15:02 302 2 gusting 5 9.4
2014-Jul-24 14:47 310 2 gusting 4 9.4
2014-Jul-24 14:32 321 3 gusting 6 9.4
2014-Jul-24 14:17 321 3 gusting 6 10.0
2014-Jul-24 14:02 317 4 gusting 6 10.0
2014-Jul-24 13:47 311 2 gusting 6 10.0
2014-Jul-24 13:32 309 3 gusting 5 10.0
2014-Jul-24 13:17 314 2 gusting 3 10.0
2014-Jul-24 13:02 311 2 gusting 4 10.0
2014-Jul-24 12:47 308 3 gusting 6 10.0
2014-Jul-24 12:32 314 3 gusting 5 10.0
2014-Jul-24 12:17 315 3 gusting 6 10.0
2014-Jul-24 12:02 307 3 gusting 6 10.0
2014-Jul-24 11:47 308 3 gusting 5 10.0
2014-Jul-24 11:32 316 3 gusting 6 10.0
2014-Jul-24 11:17 318 4 gusting 6 10.0
2014-Jul-24 11:02 316 3 gusting 6 10.0
2014-Jul-24 10:47 310 3 gusting 6 10.0
2014-Jul-24 10:32 321 3 gusting 6 10.0
2014-Jul-24 10:17 310 1 gusting 3 10.6
2014-Jul-24 10:02 300 2 gusting 4 10.6
2014-Jul-24 09:47 308 2 gusting 6 10.6
2014-Jul-24 09:32 304 3 gusting 6 11.1
2014-Jul-24 09:17 297 4 gusting 6 11.1
2014-Jul-24 09:02 305 2 gusting 5 11.1
2014-Jul-24 08:47 302 3 gusting 5 11.7
2014-Jul-24 08:31 307 1 gusting 5 11.7
2014-Jul-24 08:16 300 2 gusting 4 11.7
2014-Jul-24 08:01 302 1 gusting 4 12.2
2014-Jul-24 07:46 285 5 gusting 17 12.8
2014-Jul-24 07:31 288 3 gusting 6 16.1
2014-Jul-24 07:16 288 4 gusting 9 16.7
2014-Jul-24 07:01 291 5 gusting 11 16.7
2014-Jul-24 06:46 285 6 gusting 11 17.2
2014-Jul-24 06:31 307 7 gusting 12 16.7
2014-Jul-24 06:16 310 5 gusting 13 16.1
2014-Jul-24 06:01 274 10 gusting 19 16.7
2014-Jul-24 05:46 243 9 gusting 19 17.2
2014-Jul-24 04:31 260 10 gusting 18 18.3
2014-Jul-24 04:16 276 10 gusting 22 17.8
2014-Jul-24 04:01 296 13 gusting 21 17.8
2014-Jul-24 03:46 291 13 gusting 21 17.2
2014-Jul-24 03:31 268 11 gusting 20 17.2
2014-Jul-24 03:16 262 10 gusting 19 17.2
2014-Jul-24 03:01 278 11 gusting 16 16.7
2014-Jul-24 02:46 249 10 gusting 16 16.7
2014-Jul-24 02:31 283 10 gusting 18 16.7
2014-Jul-24 02:16 278 11 gusting 17 16.1
2014-Jul-24 02:01 273 8 gusting 16 16.1
2014-Jul-24 01:46 280 7 gusting 19 15.6
2014-Jul-24 01:31 277 8 gusting 15 15.6
2014-Jul-24 01:16 296 12 gusting 19 15.6
2014-Jul-24 01:01 294 9 gusting 17 15.6
2014-Jul-24 00:46 300 8 gusting 14 15.0
2014-Jul-24 00:31 325 9 gusting 15 14.4
2014-Jul-24 00:16 274 7 gusting 14 13.3
2014-Jul-24 00:00 291 8 gusting 17 12.8
2014-Jul-23 23:45 267 9 gusting 16 12.2
2014-Jul-23 23:30 296 9 gusting 13 12.2
2014-Jul-23 23:15 297 8 gusting 18 11.7
2014-Jul-23 23:00 311 7 gusting 13 11.1
2014-Jul-23 22:45 310 8 gusting 14 11.1
2014-Jul-23 22:30 304 6 gusting 10 11.1
2014-Jul-23 22:15 323 6 gusting 12 11.1
2014-Jul-23 22:00 294 6 gusting 12 11.1
2014-Jul-23 21:45 317 6 gusting 12 10.6
2014-Jul-23 21:30 284 7 gusting 13 10.6
2014-Jul-23 21:15 289 6 gusting 11 10.6
2014-Jul-23 21:00 314 6 gusting 11 10.6
2014-Jul-23 20:45 307 6 gusting 11 10.6
2014-Jul-23 20:30 335 6 gusting 9 10.6
2014-Jul-23 20:15 333 6 gusting 12 10.6
2014-Jul-23 20:00 321 6 gusting 13 11.1
2014-Jul-23 19:45 345 6 gusting 14 11.1
2014-Jul-23 19:30 296 6 gusting 14 11.1
2014-Jul-23 19:15 294 8 gusting 16 11.1
2014-Jul-23 19:00 347 7 gusting 15 11.1
2014-Jul-23 18:45 305 8 gusting 16 11.1
2014-Jul-23 18:30 340 6 gusting 13 11.1
2014-Jul-23 18:15 315 11 gusting 17 11.1
2014-Jul-23 18:00 322 9 gusting 15 11.1
2014-Jul-23 17:45 347 7 gusting 16 11.1
2014-Jul-23 17:30 300 8 gusting 16 11.1
2014-Jul-23 17:15 314 10 gusting 19 11.1
2014-Jul-23 17:00 316 9 gusting 19 11.1
2014-Jul-23 16:45 296 13 gusting 19 11.1
2014-Jul-23 16:30 333 8 gusting 14 11.1
2014-Jul-23 16:15 349 9 gusting 17 12.2
2014-Jul-23 15:59 319 12 gusting 19 12.8
2014-Jul-23 15:44 325 12 gusting 21 12.8
2014-Jul-23 15:29 330 8 gusting 19 12.2
2014-Jul-23 15:14 341 11 gusting 19 11.7
2014-Jul-23 14:59 323 9 gusting 17 11.1
2014-Jul-23 14:44 330 9 gusting 19 11.1
2014-Jul-23 14:29 325 11 gusting 18 12.2
2014-Jul-23 14:14 333 11 gusting 19 12.2
2014-Jul-23 13:59 013 9 gusting 16 12.2
2014-Jul-23 13:44 310 13 gusting 19 11.7
2014-Jul-23 13:29 347 11 gusting 19 11.7
2014-Jul-23 13:14 321 9 gusting 17 11.1
2014-Jul-23 12:59 307 11 gusting 17 11.1
2014-Jul-23 12:44 325 9 gusting 16 10.6
2014-Jul-23 12:29 339 10 gusting 19 10.6
2014-Jul-23 12:14 316 12 gusting 21 10.6
2014-Jul-23 11:59 330 12 11.1
2014-Jul-23 11:44 328 9 gusting 19 11.7
2014-Jul-23 11:29 350 10 11.7
2014-Jul-23 11:14 339 5 gusting 13 12.2
2014-Jul-23 10:59 345 12 gusting 19 12.8
2014-Jul-23 10:44 025 11 gusting 24 12.2
2014-Jul-23 10:29 050 9 gusting 19 11.1
2014-Jul-23 10:14 053 7 gusting 10 10.6
2014-Jul-23 09:59 058 7 gusting 12 10.6
2014-Jul-23 09:44 042 8 gusting 13 11.1
2014-Jul-23 09:29 056 9 gusting 15 11.7
2014-Jul-23 09:14 044 9 gusting 15 11.7
2014-Jul-23 08:59 039 9 gusting 14 12.2
2014-Jul-23 08:44 352 9 gusting 27 12.2
2014-Jul-23 08:29 023 13 gusting 23 11.7
2014-Jul-23 08:14 022 8 gusting 22 10.6
2014-Jul-23 07:59 348 10 gusting 18 10.6
2014-Jul-23 07:44 022 8 gusting 13 11.1
2014-Jul-23 07:29 044 9 gusting 17 11.1
2014-Jul-23 07:14 004 9 gusting 19 10.6
2014-Jul-23 06:59 050 11 gusting 22 10.6
2014-Jul-23 06:44 025 5 gusting 14 10.0
2014-Jul-23 06:29 349 3 gusting 9 10.6
2014-Jul-23 06:14 349 11 gusting 19 10.6
2014-Jul-23 05:59 339 6 gusting 13 11.1
2014-Jul-23 05:44 342 6 gusting 13 11.7
2014-Jul-23 05:29 357 18 gusting 26 15.6
2014-Jul-23 05:14 019 7 gusting 21 16.7
2014-Jul-23 04:59 357 16 gusting 26 17.2
2014-Jul-23 04:43 004 11 gusting 22 17.2
2014-Jul-23 04:28 011 13 gusting 24 17.2
2014-Jul-23 04:13 030 11 gusting 24 17.2
2014-Jul-23 03:58 348 8 gusting 19 17.2
2014-Jul-23 03:43 358 8 gusting 15 16.7
2014-Jul-23 03:28 058 6 gusting 11 15.6
2014-Jul-23 03:13 044 6 gusting 10 15.6
2014-Jul-23 02:58 030 6 gusting 14 15.0
2014-Jul-23 02:43 047 10 gusting 15 15.0
2014-Jul-23 02:28 047 11 gusting 14 15.0
2014-Jul-23 02:13 047 9 gusting 13 13.9
2014-Jul-23 01:58 054 6 gusting 11 13.3
2014-Jul-23 01:43 075 6 gusting 10 12.8
2014-Jul-23 01:28 098 5 gusting 10 12.8
2014-Jul-23 01:13 049 4 gusting 9 12.2
2014-Jul-23 00:58 094 6 gusting 12 12.2
2014-Jul-23 00:43 087 6 gusting 9 11.7
2014-Jul-23 00:28 096 4 gusting 6 11.1
2014-Jul-23 00:13 064 4 gusting 6 11.1
2014-Jul-22 23:58 027 6 gusting 10 11.1
2014-Jul-22 23:43 039 4 gusting 5 10.6
2014-Jul-22 23:28 064 5 gusting 6 11.1
2014-Jul-22 23:13 049 5 gusting 10 11.1
2014-Jul-22 22:58 330 6 gusting 11 11.1
2014-Jul-22 22:28 333 4 gusting 8 11.1
2014-Jul-22 22:13 359 2 gusting 7 11.7
2014-Jul-22 21:58 070 4 gusting 8 12.2
2014-Jul-22 21:43 033 6 gusting 10 12.8
2014-Jul-22 21:27 005 3 gusting 9 12.8
2014-Jul-22 21:12 012 4 gusting 6 12.2
2014-Jul-22 20:57 344 3 gusting 5 12.2
2014-Jul-22 20:42 344 3 gusting 5 12.2
2014-Jul-22 20:27 339 1 gusting 3 11.1
2014-Jul-22 20:12 325 0 gusting 1 10.6
2014-Jul-22 19:57 285 1 gusting 2 10.6
2014-Jul-22 19:42 308 0 gusting 1 10.0
2014-Jul-22 19:27 281 2 gusting 4 10.0
2014-Jul-22 19:12 294 0 gusting 2 10.0